sensor_id;sensor_type;location;lat;lon;timestamp;pressure;altitude;pressure_sealevel;temperature;humidity
80424;BME280;69765;47.668;19.326;2023-05-24T00:02:59;98836.81;;;16.65;84.62
80424;BME280;69765;47.668;19.326;2023-05-24T00:06:02;98838.59;;;16.66;84.98
80424;BME280;69765;47.668;19.326;2023-05-24T00:09:09;98838.59;;;16.66;83.87
80424;BME280;69765;47.668;19.326;2023-05-24T00:12:12;98841.81;;;16.60;84.17
80424;BME280;69765;47.668;19.326;2023-05-24T00:15:15;98836.63;;;16.60;84.30
80424;BME280;69765;47.668;19.326;2023-05-24T00:18:18;98835.59;;;16.55;84.35
80424;BME280;69765;47.668;19.326;2023-05-24T00:21:20;98829.53;;;16.55;85.10
80424;BME280;69765;47.668;19.326;2023-05-24T00:24:22;98837.41;;;16.58;84.40
80424;BME280;69765;47.668;19.326;2023-05-24T00:27:25;98837.06;;;16.49;85.01
80424;BME280;69765;47.668;19.326;2023-05-24T00:30:27;98819.19;;;16.55;84.44
80424;BME280;69765;47.668;19.326;2023-05-24T00:33:29;98824.28;;;16.52;85.28
80424;BME280;69765;47.668;19.326;2023-05-24T00:36:32;98819.63;;;16.43;84.61
80424;BME280;69765;47.668;19.326;2023-05-24T00:39:35;98825.66;;;16.42;85.56
80424;BME280;69765;47.668;19.326;2023-05-24T00:42:37;98816.41;;;16.49;85.33
80424;BME280;69765;47.668;19.326;2023-05-24T00:45:39;98813.16;;;16.54;84.94
80424;BME280;69765;47.668;19.326;2023-05-24T00:48:43;98814.72;;;16.51;84.91
80424;BME280;69765;47.668;19.326;2023-05-24T00:51:46;98810.28;;;16.47;85.47
80424;BME280;69765;47.668;19.326;2023-05-24T00:54:49;98810.03;;;16.41;85.37
80424;BME280;69765;47.668;19.326;2023-05-24T00:57:52;98814.28;;;16.39;85.90
80424;BME280;69765;47.668;19.326;2023-05-24T01:01:00;98818.50;;;16.36;85.70
80424;BME280;69765;47.668;19.326;2023-05-24T01:04:03;98816.53;;;16.29;86.19
80424;BME280;69765;47.668;19.326;2023-05-24T01:07:20;98805.19;;;16.26;86.25
80424;BME280;69765;47.668;19.326;2023-05-24T01:13:47;98817.25;;;16.25;86.36
80424;BME280;69765;47.668;19.326;2023-05-24T01:17:08;98815.41;;;16.23;86.42
80424;BME280;69765;47.668;19.326;2023-05-24T01:20:16;98811.84;;;16.19;86.34
80424;BME280;69765;47.668;19.326;2023-05-24T01:23:31;98806.34;;;16.10;86.69
80424;BME280;69765;47.668;19.326;2023-05-24T01:30:04;98814.28;;;15.94;87.25
80424;BME280;69765;47.668;19.326;2023-05-24T01:33:08;98806.13;;;15.83;87.49
80424;BME280;69765;47.668;19.326;2023-05-24T01:36:13;98811.13;;;15.78;87.51
80424;BME280;69765;47.668;19.326;2023-05-24T01:39:15;98810.06;;;15.73;88.10
80424;BME280;69765;47.668;19.326;2023-05-24T01:42:42;98804.53;;;15.64;88.26
80424;BME280;69765;47.668;19.326;2023-05-24T01:46:04;98807.03;;;15.63;88.25
80424;BME280;69765;47.668;19.326;2023-05-24T01:52:22;98802.59;;;15.60;88.29
80424;BME280;69765;47.668;19.326;2023-05-24T01:55:30;98808.47;;;15.56;88.52
80424;BME280;69765;47.668;19.326;2023-05-24T01:58:35;98810.28;;;15.58;88.31
80424;BME280;69765;47.668;19.326;2023-05-24T02:01:40;98807.63;;;15.57;88.47
80424;BME280;69765;47.668;19.326;2023-05-24T02:04:43;98797.91;;;15.50;88.64
80424;BME280;69765;47.668;19.326;2023-05-24T02:07:45;98804.13;;;15.55;88.55
80424;BME280;69765;47.668;19.326;2023-05-24T02:10:47;98800.84;;;15.59;88.44
80424;BME280;69765;47.668;19.326;2023-05-24T02:13:50;98804.19;;;15.56;88.44
80424;BME280;69765;47.668;19.326;2023-05-24T02:16:52;98810.22;;;15.57;88.96
80424;BME280;69765;47.668;19.326;2023-05-24T02:20:00;98806.28;;;15.65;88.49
80424;BME280;69765;47.668;19.326;2023-05-24T02:23:03;98798.47;;;15.64;88.11
80424;BME280;69765;47.668;19.326;2023-05-24T02:26:05;98806.38;;;15.67;88.22
80424;BME280;69765;47.668;19.326;2023-05-24T02:29:08;98800.47;;;15.71;87.82
80424;BME280;69765;47.668;19.326;2023-05-24T02:32:11;98798.53;;;15.65;88.56
80424;BME280;69765;47.668;19.326;2023-05-24T02:35:14;98797.88;;;15.71;88.08
80424;BME280;69765;47.668;19.326;2023-05-24T02:38:17;98799.78;;;15.75;88.09
80424;BME280;69765;47.668;19.326;2023-05-24T02:41:19;98795.50;;;15.75;88.43
80424;BME280;69765;47.668;19.326;2023-05-24T02:44:23;98794.78;;;15.79;87.93
80424;BME280;69765;47.668;19.326;2023-05-24T02:47:25;98791.19;;;15.76;87.83
80424;BME280;69765;47.668;19.326;2023-05-24T02:50:28;98799.13;;;15.80;88.04
80424;BME280;69765;47.668;19.326;2023-05-24T02:53:32;98800.84;;;15.80;88.00
80424;BME280;69765;47.668;19.326;2023-05-24T02:56:34;98801.34;;;15.71;88.33
80424;BME280;69765;47.668;19.326;2023-05-24T02:59:38;98804.75;;;15.70;88.70
80424;BME280;69765;47.668;19.326;2023-05-24T03:02:41;98800.47;;;15.71;88.72
80424;BME280;69765;47.668;19.326;2023-05-24T03:05:43;98808.94;;;15.67;88.99
80424;BME280;69765;47.668;19.326;2023-05-24T03:08:47;98815.09;;;15.70;88.78
80424;BME280;69765;47.668;19.326;2023-05-24T03:11:50;98811.81;;;15.74;88.57
80424;BME280;69765;47.668;19.326;2023-05-24T03:14:55;98800.66;;;15.75;88.72
80424;BME280;69765;47.668;19.326;2023-05-24T03:17:58;98806.78;;;15.77;88.57
80424;BME280;69765;47.668;19.326;2023-05-24T03:21:01;98809.53;;;15.82;88.71
80424;BME280;69765;47.668;19.326;2023-05-24T03:24:04;98812.41;;;15.90;88.18
80424;BME280;69765;47.668;19.326;2023-05-24T03:27:07;98815.06;;;15.91;88.32
80424;BME280;69765;47.668;19.326;2023-05-24T03:30:10;98806.63;;;15.95;88.10
80424;BME280;69765;47.668;19.326;2023-05-24T03:33:26;98807.69;;;16.00;87.77
80424;BME280;69765;47.668;19.326;2023-05-24T03:36:29;98799.94;;;16.00;88.18
80424;BME280;69765;47.668;19.326;2023-05-24T03:39:32;98795.50;;;15.98;88.06
80424;BME280;69765;47.668;19.326;2023-05-24T03:42:54;98801.47;;;15.95;88.23
80424;BME280;69765;47.668;19.326;2023-05-24T03:46:11;98809.25;;;15.97;88.22
80424;BME280;69765;47.668;19.326;2023-05-24T03:49:15;98806.63;;;15.95;88.66
80424;BME280;69765;47.668;19.326;2023-05-24T03:52:18;98803.41;;;16.01;88.08
80424;BME280;69765;47.668;19.326;2023-05-24T03:55:20;98808.47;;;15.99;88.13
80424;BME280;69765;47.668;19.326;2023-05-24T03:58:23;98804.97;;;15.97;88.41
80424;BME280;69765;47.668;19.326;2023-05-24T04:01:25;98814.97;;;16.10;88.19
80424;BME280;69765;47.668;19.326;2023-05-24T04:04:36;98814.84;;;16.07;88.08
80424;BME280;69765;47.668;19.326;2023-05-24T04:07:39;98809.88;;;16.14;87.75
80424;BME280;69765;47.668;19.326;2023-05-24T04:10:42;98811.72;;;16.16;87.35
80424;BME280;69765;47.668;19.326;2023-05-24T04:13:46;98813.47;;;16.17;87.74
80424;BME280;69765;47.668;19.326;2023-05-24T04:16:48;98818.16;;;16.27;87.53
80424;BME280;69765;47.668;19.326;2023-05-24T04:19:53;98806.78;;;16.22;87.74
80424;BME280;69765;47.668;19.326;2023-05-24T04:22:57;98814.53;;;16.22;87.31
80424;BME280;69765;47.668;19.326;2023-05-24T04:26:00;98815.19;;;16.17;87.65
80424;BME280;69765;47.668;19.326;2023-05-24T04:29:04;98822.97;;;16.18;87.55
80424;BME280;69765;47.668;19.326;2023-05-24T04:32:07;98829.84;;;16.18;88.22
80424;BME280;69765;47.668;19.326;2023-05-24T04:35:13;98840.28;;;16.19;87.76
80424;BME280;69765;47.668;19.326;2023-05-24T04:38:15;98843.44;;;16.34;87.40
80424;BME280;69765;47.668;19.326;2023-05-24T04:41:18;98847.53;;;16.52;86.93
80424;BME280;69765;47.668;19.326;2023-05-24T04:44:22;98849.91;;;16.70;85.99
80424;BME280;69765;47.668;19.326;2023-05-24T04:47:25;98850.94;;;16.97;85.29
80424;BME280;69765;47.668;19.326;2023-05-24T04:50:27;98854.56;;;17.02;85.25
80424;BME280;69765;47.668;19.326;2023-05-24T04:53:30;98848.63;;;17.30;84.83
80424;BME280;69765;47.668;19.326;2023-05-24T04:56:34;98845.41;;;17.63;83.83
80424;BME280;69765;47.668;19.326;2023-05-24T04:59:37;98851.19;;;17.80;82.59
80424;BME280;69765;47.668;19.326;2023-05-24T05:02:39;98852.78;;;18.03;81.60
80424;BME280;69765;47.668;19.326;2023-05-24T05:05:42;98847.97;;;18.16;80.33
80424;BME280;69765;47.668;19.326;2023-05-24T05:08:46;98848.09;;;18.20;80.55
80424;BME280;69765;47.668;19.326;2023-05-24T05:11:50;98850.13;;;18.02;79.58
80424;BME280;69765;47.668;19.326;2023-05-24T05:14:54;98858.16;;;18.09;80.74
80424;BME280;69765;47.668;19.326;2023-05-24T05:17:58;98856.25;;;18.04;80.44
80424;BME280;69765;47.668;19.326;2023-05-24T05:21:03;98853.50;;;18.26;79.82
80424;BME280;69765;47.668;19.326;2023-05-24T05:24:09;98857.38;;;18.69;79.02
80424;BME280;69765;47.668;19.326;2023-05-24T05:27:13;98858.13;;;18.67;77.06
80424;BME280;69765;47.668;19.326;2023-05-24T05:30:16;98837.47;;;19.00;74.81
80424;BME280;69765;47.668;19.326;2023-05-24T05:33:18;98853.94;;;19.33;74.27
80424;BME280;69765;47.668;19.326;2023-05-24T05:36:21;98853.34;;;19.77;73.06
80424;BME280;69765;47.668;19.326;2023-05-24T05:39:23;98853.28;;;20.10;71.42
80424;BME280;69765;47.668;19.326;2023-05-24T05:42:26;98861.22;;;20.55;69.50
80424;BME280;69765;47.668;19.326;2023-05-24T05:45:28;98871.53;;;20.91;67.25
80424;BME280;69765;47.668;19.326;2023-05-24T05:48:30;98857.75;;;20.55;68.71
80424;BME280;69765;47.668;19.326;2023-05-24T05:51:33;98866.31;;;20.51;69.09
80424;BME280;69765;47.668;19.326;2023-05-24T05:54:35;98876.56;;;20.84;67.10
80424;BME280;69765;47.668;19.326;2023-05-24T05:57:38;98880.22;;;20.92;66.70
80424;BME280;69765;47.668;19.326;2023-05-24T06:00:40;98875.94;;;21.39;65.49
80424;BME280;69765;47.668;19.326;2023-05-24T06:03:43;98882.81;;;21.84;63.51
80424;BME280;69765;47.668;19.326;2023-05-24T06:06:46;98883.22;;;21.57;64.52
80424;BME280;69765;47.668;19.326;2023-05-24T06:09:51;98889.34;;;21.14;65.43
80424;BME280;69765;47.668;19.326;2023-05-24T06:12:53;98887.53;;;21.11;66.93
80424;BME280;69765;47.668;19.326;2023-05-24T06:15:57;98886.47;;;20.59;67.41
80424;BME280;69765;47.668;19.326;2023-05-24T06:19:00;98891.56;;;20.17;68.65
80424;BME280;69765;47.668;19.326;2023-05-24T06:22:07;98902.22;;;20.28;69.06
80424;BME280;69765;47.668;19.326;2023-05-24T06:25:10;98900.25;;;20.95;68.52
80424;BME280;69765;47.668;19.326;2023-05-24T06:28:15;98900.25;;;21.38;66.16
80424;BME280;69765;47.668;19.326;2023-05-24T06:31:18;98903.88;;;21.47;65.26
80424;BME280;69765;47.668;19.326;2023-05-24T06:34:20;98904.41;;;21.76;63.85
80424;BME280;69765;47.668;19.326;2023-05-24T06:37:23;98906.50;;;21.98;63.56
80424;BME280;69765;47.668;19.326;2023-05-24T06:40:26;98907.66;;;22.12;64.07
80424;BME280;69765;47.668;19.326;2023-05-24T06:43:29;98908.53;;;22.13;62.52
80424;BME280;69765;47.668;19.326;2023-05-24T06:46:31;98920.53;;;21.55;64.20
80424;BME280;69765;47.668;19.326;2023-05-24T06:49:34;98916.91;;;21.97;63.29
80424;BME280;69765;47.668;19.326;2023-05-24T06:52:37;98914.28;;;21.95;63.64
80424;BME280;69765;47.668;19.326;2023-05-24T06:55:39;98921.69;;;21.69;62.31
80424;BME280;69765;47.668;19.326;2023-05-24T06:58:41;98922.03;;;21.92;62.75
80424;BME280;69765;47.668;19.326;2023-05-24T07:01:45;98909.94;;;21.95;61.46
80424;BME280;69765;47.668;19.326;2023-05-24T07:04:47;98910.03;;;22.58;60.78
80424;BME280;69765;47.668;19.326;2023-05-24T07:07:50;98910.63;;;22.38;61.37
80424;BME280;69765;47.668;19.326;2023-05-24T07:10:53;98918.88;;;22.67;61.53
80424;BME280;69765;47.668;19.326;2023-05-24T07:13:56;98915.06;;;23.08;58.70
80424;BME280;69765;47.668;19.326;2023-05-24T07:16:59;98910.28;;;23.47;57.85
80424;BME280;69765;47.668;19.326;2023-05-24T07:20:02;98914.22;;;23.09;58.65
80424;BME280;69765;47.668;19.326;2023-05-24T07:23:08;98907.38;;;24.05;55.48
80424;BME280;69765;47.668;19.326;2023-05-24T07:26:10;98909.06;;;24.03;55.44
80424;BME280;69765;47.668;19.326;2023-05-24T07:29:13;98915.34;;;23.29;57.95
80424;BME280;69765;47.668;19.326;2023-05-24T07:32:16;98923.28;;;23.43;57.87
80424;BME280;69765;47.668;19.326;2023-05-24T07:35:19;98921.44;;;24.19;56.14
80424;BME280;69765;47.668;19.326;2023-05-24T07:38:22;98914.38;;;24.09;55.94
80424;BME280;69765;47.668;19.326;2023-05-24T07:41:26;98926.97;;;23.59;56.48
80424;BME280;69765;47.668;19.326;2023-05-24T07:44:28;98923.25;;;24.28;54.63
80424;BME280;69765;47.668;19.326;2023-05-24T07:47:31;98931.53;;;25.00;53.72
80424;BME280;69765;47.668;19.326;2023-05-24T07:50:33;98936.81;;;25.05;53.99
80424;BME280;69765;47.668;19.326;2023-05-24T07:53:37;98929.22;;;26.25;50.18
80424;BME280;69765;47.668;19.326;2023-05-24T07:56:40;98934.41;;;25.75;49.37
80424;BME280;69765;47.668;19.326;2023-05-24T07:59:43;98939.63;;;25.58;50.53
80424;BME280;69765;47.668;19.326;2023-05-24T08:02:45;98929.22;;;26.09;49.68
80424;BME280;69765;47.668;19.326;2023-05-24T08:05:48;98939.69;;;26.53;49.79
80424;BME280;69765;47.668;19.326;2023-05-24T08:08:50;98938.56;;;27.32;47.06
80424;BME280;69765;47.668;19.326;2023-05-24T08:11:53;98933.78;;;28.01;44.79
80424;BME280;69765;47.668;19.326;2023-05-24T08:14:55;98949.88;;;27.57;46.85
80424;BME280;69765;47.668;19.326;2023-05-24T08:17:57;98944.06;;;28.35;44.10
80424;BME280;69765;47.668;19.326;2023-05-24T08:21:00;98943.53;;;29.58;41.23
80424;BME280;69765;47.668;19.326;2023-05-24T08:24:03;98939.25;;;27.72;44.41
80424;BME280;69765;47.668;19.326;2023-05-24T08:27:10;98951.06;;;26.69;47.40
80424;BME280;69765;47.668;19.326;2023-05-24T08:30:13;98944.88;;;25.55;49.33
80424;BME280;69765;47.668;19.326;2023-05-24T08:33:15;98951.06;;;25.97;49.58
80424;BME280;69765;47.668;19.326;2023-05-24T08:36:18;98954.69;;;28.20;43.88
80424;BME280;69765;47.668;19.326;2023-05-24T08:39:20;98956.97;;;27.37;44.39
80424;BME280;69765;47.668;19.326;2023-05-24T08:42:24;98953.66;;;26.67;46.14
80424;BME280;69765;47.668;19.326;2023-05-24T08:45:35;98962.44;;;25.76;48.44
80424;BME280;69765;47.668;19.326;2023-05-24T08:48:44;98965.03;;;25.70;49.21
80424;BME280;69765;47.668;19.326;2023-05-24T08:51:48;98973.69;;;25.44;49.66
80424;BME280;69765;47.668;19.326;2023-05-24T08:54:53;98982.59;;;26.40;48.88
80424;BME280;69765;47.668;19.326;2023-05-24T08:57:57;98972.97;;;26.04;49.10
80424;BME280;69765;47.668;19.326;2023-05-24T09:01:01;98982.47;;;25.56;50.48
80424;BME280;69765;47.668;19.326;2023-05-24T09:04:03;98965.09;;;26.33;48.79
80424;BME280;69765;47.668;19.326;2023-05-24T09:07:07;98972.00;;;26.98;45.02
80424;BME280;69765;47.668;19.326;2023-05-24T09:10:10;98977.31;;;25.79;48.51
80424;BME280;69765;47.668;19.326;2023-05-24T09:13:14;98979.53;;;24.90;50.68
80424;BME280;69765;47.668;19.326;2023-05-24T09:16:18;98987.09;;;24.44;52.24
80424;BME280;69765;47.668;19.326;2023-05-24T09:19:20;98983.03;;;23.81;54.07
80424;BME280;69765;47.668;19.326;2023-05-24T09:22:24;98983.25;;;25.35;50.80
80424;BME280;69765;47.668;19.326;2023-05-24T09:25:29;98977.00;;;27.73;45.34
80424;BME280;69765;47.668;19.326;2023-05-24T09:28:32;98982.38;;;27.41;45.16
80424;BME280;69765;47.668;19.326;2023-05-24T09:31:35;98977.31;;;25.91;48.57
80424;BME280;69765;47.668;19.326;2023-05-24T09:34:39;98993.72;;;25.26;48.56
80424;BME280;69765;47.668;19.326;2023-05-24T09:37:44;98987.41;;;24.91;49.26
80424;BME280;69765;47.668;19.326;2023-05-24T09:41:06;98978.19;;;25.87;47.30
80424;BME280;69765;47.668;19.326;2023-05-24T09:44:12;98982.44;;;25.46;48.66
80424;BME280;69765;47.668;19.326;2023-05-24T09:47:16;98980.72;;;27.24;45.46
80424;BME280;69765;47.668;19.326;2023-05-24T09:50:18;98974.22;;;30.78;38.44
80424;BME280;69765;47.668;19.326;2023-05-24T09:53:21;98981.97;;;31.74;35.79
80424;BME280;69765;47.668;19.326;2023-05-24T09:56:32;98978.19;;;33.55;32.31
80424;BME280;69765;47.668;19.326;2023-05-24T09:59:39;98968.56;;;34.33;30.45
80424;BME280;69765;47.668;19.326;2023-05-24T10:02:44;98968.09;;;30.74;36.96
80424;BME280;69765;47.668;19.326;2023-05-24T10:05:55;98976.03;;;28.89;40.14
80424;BME280;69765;47.668;19.326;2023-05-24T10:08:59;98980.69;;;27.31;43.71
80424;BME280;69765;47.668;19.326;2023-05-24T10:12:04;98980.88;;;26.46;45.44
80424;BME280;69765;47.668;19.326;2023-05-24T10:15:08;98978.41;;;28.20;41.44
80424;BME280;69765;47.668;19.326;2023-05-24T10:18:14;98964.22;;;31.39;35.90
80424;BME280;69765;47.668;19.326;2023-05-24T10:21:18;98984.84;;;28.87;39.32
80424;BME280;69765;47.668;19.326;2023-05-24T10:24:25;98979.81;;;27.29;42.40
80424;BME280;69765;47.668;19.326;2023-05-24T10:27:29;98976.25;;;27.42;43.34
80424;BME280;69765;47.668;19.326;2023-05-24T10:33:44;98979.31;;;28.16;40.21
80424;BME280;69765;47.668;19.326;2023-05-24T10:36:49;98970.81;;;31.98;33.51
80424;BME280;69765;47.668;19.326;2023-05-24T10:39:52;98987.38;;;28.99;39.18
80424;BME280;69765;47.668;19.326;2023-05-24T10:42:54;98978.78;;;27.60;42.61
80424;BME280;69765;47.668;19.326;2023-05-24T10:45:57;98983.41;;;26.95;44.81
80424;BME280;69765;47.668;19.326;2023-05-24T10:49:00;98979.97;;;26.69;44.82
80424;BME280;69765;47.668;19.326;2023-05-24T10:52:08;98986.75;;;27.42;44.58
80424;BME280;69765;47.668;19.326;2023-05-24T10:55:20;98981.38;;;30.73;37.56
80424;BME280;69765;47.668;19.326;2023-05-24T11:02:07;98984.06;;;30.17;35.97
80424;BME280;69765;47.668;19.326;2023-05-24T11:05:17;98969.56;;;28.27;39.75
80424;BME280;69765;47.668;19.326;2023-05-24T11:08:32;98982.38;;;27.42;42.79
80424;BME280;69765;47.668;19.326;2023-05-24T11:11:36;98983.47;;;26.13;45.93
80424;BME280;69765;47.668;19.326;2023-05-24T11:14:49;98991.28;;;25.76;47.18
80424;BME280;69765;47.668;19.326;2023-05-24T11:21:13;98984.91;;;25.11;49.99
80424;BME280;69765;47.668;19.326;2023-05-24T11:24:17;98982.19;;;24.94;50.67
80424;BME280;69765;47.668;19.326;2023-05-24T11:27:20;98986.38;;;24.62;50.75
80424;BME280;69765;47.668;19.326;2023-05-24T11:30:24;98991.47;;;24.42;50.61
80424;BME280;69765;47.668;19.326;2023-05-24T11:33:27;98986.22;;;24.43;50.93
80424;BME280;69765;47.668;19.326;2023-05-24T11:36:30;98982.72;;;24.46;50.77
80424;BME280;69765;47.668;19.326;2023-05-24T11:39:35;98989.09;;;24.80;49.75
80424;BME280;69765;47.668;19.326;2023-05-24T11:42:38;98975.31;;;25.13;48.19
80424;BME280;69765;47.668;19.326;2023-05-24T11:45:46;98978.91;;;25.38;48.08
80424;BME280;69765;47.668;19.326;2023-05-24T11:48:56;98982.41;;;25.39;46.87
80424;BME280;69765;47.668;19.326;2023-05-24T11:52:00;98978.19;;;25.91;46.19
80424;BME280;69765;47.668;19.326;2023-05-24T11:55:02;98964.06;;;27.25;42.71
80424;BME280;69765;47.668;19.326;2023-05-24T11:58:10;98954.56;;;28.40;40.08
80424;BME280;69765;47.668;19.326;2023-05-24T12:01:26;98957.34;;;29.78;37.20
80424;BME280;69765;47.668;19.326;2023-05-24T12:04:29;98949.31;;;30.40;36.88
80424;BME280;69765;47.668;19.326;2023-05-24T12:07:32;98951.56;;;31.08;34.72
80424;BME280;69765;47.668;19.326;2023-05-24T12:10:36;98959.19;;;31.67;35.00
80424;BME280;69765;47.668;19.326;2023-05-24T12:13:39;98959.66;;;29.98;37.12
80424;BME280;69765;47.668;19.326;2023-05-24T12:16:43;98955.25;;;28.59;39.96
80424;BME280;69765;47.668;19.326;2023-05-24T12:19:50;98958.38;;;27.99;42.65
80424;BME280;69765;47.668;19.326;2023-05-24T12:22:54;98961.94;;;27.89;41.69
80424;BME280;69765;47.668;19.326;2023-05-24T12:26:00;98961.19;;;27.68;41.26
80424;BME280;69765;47.668;19.326;2023-05-24T12:29:03;98959.66;;;27.27;42.46
80424;BME280;69765;47.668;19.326;2023-05-24T12:32:06;98964.16;;;26.87;43.40
80424;BME280;69765;47.668;19.326;2023-05-24T12:35:22;98954.59;;;26.60;43.58
80424;BME280;69765;47.668;19.326;2023-05-24T12:38:24;98951.09;;;26.47;43.60
80424;BME280;69765;47.668;19.326;2023-05-24T12:41:29;98944.72;;;27.33;40.51
80424;BME280;69765;47.668;19.326;2023-05-24T12:44:36;98930.88;;;28.31;39.60
80424;BME280;69765;47.668;19.326;2023-05-24T12:47:39;98927.06;;;28.64;38.82
80424;BME280;69765;47.668;19.326;2023-05-24T12:50:42;98923.72;;;28.46;39.69
80424;BME280;69765;47.668;19.326;2023-05-24T12:53:45;98927.31;;;28.41;39.98
80424;BME280;69765;47.668;19.326;2023-05-24T12:56:47;98917.13;;;27.96;40.56
80424;BME280;69765;47.668;19.326;2023-05-24T12:59:49;98917.00;;;28.15;40.83
80424;BME280;69765;47.668;19.326;2023-05-24T13:02:53;98925.16;;;27.81;40.69
80424;BME280;69765;47.668;19.326;2023-05-24T13:05:57;98904.06;;;27.84;40.67
80424;BME280;69765;47.668;19.326;2023-05-24T13:09:01;98925.22;;;27.72;41.07
80424;BME280;69765;47.668;19.326;2023-05-24T13:12:04;98919.34;;;27.18;40.59
80424;BME280;69765;47.668;19.326;2023-05-24T13:15:07;98908.94;;;26.89;41.78
80424;BME280;69765;47.668;19.326;2023-05-24T13:18:10;98913.19;;;27.26;42.26
80424;BME280;69765;47.668;19.326;2023-05-24T13:21:12;98917.63;;;27.14;42.30
80424;BME280;69765;47.668;19.326;2023-05-24T13:24:15;98920.25;;;27.08;41.97
80424;BME280;69765;47.668;19.326;2023-05-24T13:27:17;98912.41;;;26.94;43.02
80424;BME280;69765;47.668;19.326;2023-05-24T13:30:20;98913.38;;;26.71;43.15
80424;BME280;69765;47.668;19.326;2023-05-24T13:33:30;98908.09;;;26.82;41.85
80424;BME280;69765;47.668;19.326;2023-05-24T13:36:35;98915.03;;;26.97;41.61
80424;BME280;69765;47.668;19.326;2023-05-24T13:39:39;98914.13;;;27.13;41.79
80424;BME280;69765;47.668;19.326;2023-05-24T13:42:41;98909.75;;;27.12;41.76
80424;BME280;69765;47.668;19.326;2023-05-24T13:45:43;98928.16;;;27.12;41.59
80424;BME280;69765;47.668;19.326;2023-05-24T13:48:46;98913.38;;;26.74;42.20
80424;BME280;69765;47.668;19.326;2023-05-24T13:51:49;98922.97;;;26.82;41.99
80424;BME280;69765;47.668;19.326;2023-05-24T13:54:52;98916.81;;;26.89;42.62
80424;BME280;69765;47.668;19.326;2023-05-24T13:57:55;98909.81;;;26.92;42.57
80424;BME280;69765;47.668;19.326;2023-05-24T14:00:58;98903.59;;;27.07;42.39
80424;BME280;69765;47.668;19.326;2023-05-24T14:04:01;98901.13;;;26.64;42.89
80424;BME280;69765;47.668;19.326;2023-05-24T14:07:03;98899.41;;;26.59;43.85
80424;BME280;69765;47.668;19.326;2023-05-24T14:10:09;98903.75;;;26.61;42.85
80424;BME280;69765;47.668;19.326;2023-05-24T14:13:12;98905.53;;;26.61;43.20
80424;BME280;69765;47.668;19.326;2023-05-24T14:16:34;98913.44;;;26.47;43.07
80424;BME280;69765;47.668;19.326;2023-05-24T14:19:38;98905.53;;;26.53;44.31
80424;BME280;69765;47.668;19.326;2023-05-24T14:22:40;98909.91;;;26.68;42.88
80424;BME280;69765;47.668;19.326;2023-05-24T14:25:43;98914.28;;;26.38;43.42
80424;BME280;69765;47.668;19.326;2023-05-24T14:28:48;98921.28;;;26.35;44.03
80424;BME280;69765;47.668;19.326;2023-05-24T14:31:50;98907.31;;;26.28;43.81
80424;BME280;69765;47.668;19.326;2023-05-24T14:34:53;98910.81;;;26.18;44.32
80424;BME280;69765;47.668;19.326;2023-05-24T14:37:56;98914.34;;;26.12;44.07
80424;BME280;69765;47.668;19.326;2023-05-24T14:40:58;98923.09;;;25.88;44.75
80424;BME280;69765;47.668;19.326;2023-05-24T14:44:01;98915.19;;;25.79;45.42
80424;BME280;69765;47.668;19.326;2023-05-24T14:47:04;98922.19;;;26.06;45.79
80424;BME280;69765;47.668;19.326;2023-05-24T14:50:07;98924.84;;;26.21;43.92
80424;BME280;69765;47.668;19.326;2023-05-24T14:53:10;98919.56;;;25.80;44.96
80424;BME280;69765;47.668;19.326;2023-05-24T14:56:15;98911.66;;;25.69;45.75
80424;BME280;69765;47.668;19.326;2023-05-24T14:59:17;98919.47;;;25.37;46.47
80424;BME280;69765;47.668;19.326;2023-05-24T15:02:20;98914.22;;;25.39;45.89
80424;BME280;69765;47.668;19.326;2023-05-24T15:05:26;98933.47;;;25.42;46.20
80424;BME280;69765;47.668;19.326;2023-05-24T15:08:28;98936.94;;;25.38;45.77
80424;BME280;69765;47.668;19.326;2023-05-24T15:11:31;98926.44;;;25.35;46.43
80424;BME280;69765;47.668;19.326;2023-05-24T15:14:34;98938.63;;;25.15;46.40
80424;BME280;69765;47.668;19.326;2023-05-24T15:17:36;98936.84;;;25.09;47.25
80424;BME280;69765;47.668;19.326;2023-05-24T15:20:39;98934.03;;;24.72;47.77
80424;BME280;69765;47.668;19.326;2023-05-24T15:23:42;98941.66;;;24.40;48.87
80424;BME280;69765;47.668;19.326;2023-05-24T15:26:45;98933.63;;;24.16;49.79
80424;BME280;69765;47.668;19.326;2023-05-24T15:29:48;98940.44;;;23.98;50.14
80424;BME280;69765;47.668;19.326;2023-05-24T15:32:51;98941.38;;;24.07;50.19
80424;BME280;69765;47.668;19.326;2023-05-24T15:35:53;98946.81;;;24.31;49.65
80424;BME280;69765;47.668;19.326;2023-05-24T15:38:56;98938.94;;;24.31;49.66
80424;BME280;69765;47.668;19.326;2023-05-24T15:41:58;98947.88;;;24.53;50.71
80424;BME280;69765;47.668;19.326;2023-05-24T15:45:01;98945.19;;;24.42;52.52
80424;BME280;69765;47.668;19.326;2023-05-24T15:48:03;98956.50;;;24.40;54.10
80424;BME280;69765;47.668;19.326;2023-05-24T15:51:05;98958.13;;;24.27;55.51
80424;BME280;69765;47.668;19.326;2023-05-24T15:54:11;98969.91;;;23.78;59.23
80424;BME280;69765;47.668;19.326;2023-05-24T15:57:14;98965.19;;;23.47;58.83
80424;BME280;69765;47.668;19.326;2023-05-24T16:00:16;98973.88;;;23.45;60.75
80424;BME280;69765;47.668;19.326;2023-05-24T16:03:20;98973.06;;;23.49;59.63
80424;BME280;69765;47.668;19.326;2023-05-24T16:06:22;98980.91;;;23.51;60.17
80424;BME280;69765;47.668;19.326;2023-05-24T16:09:25;98984.59;;;23.66;58.96
80424;BME280;69765;47.668;19.326;2023-05-24T16:12:27;98983.41;;;23.38;60.19
80424;BME280;69765;47.668;19.326;2023-05-24T16:15:31;98988.31;;;23.14;59.40
80424;BME280;69765;47.668;19.326;2023-05-24T16:18:35;98988.47;;;23.25;65.21
80424;BME280;69765;47.668;19.326;2023-05-24T16:21:39;98991.78;;;23.13;64.30
80424;BME280;69765;47.668;19.326;2023-05-24T16:24:44;98996.38;;;22.68;65.34